createdAt,value
2018-07-05T00:00:08.243Z,100.00
2018-07-05T00:02:34.561Z,100.00
2018-07-05T00:05:00.873Z,100.00
2018-07-05T00:07:27.203Z,100.00
2018-07-05T00:09:53.545Z,100.00
2018-07-05T00:12:19.862Z,100.00
2018-07-05T00:14:46.178Z,100.00
2018-07-05T00:17:12.500Z,100.00
2018-07-05T00:19:38.813Z,100.00
2018-07-05T00:22:05.133Z,100.00
2018-07-05T00:24:31.529Z,100.00
2018-07-05T00:26:57.841Z,100.00
2018-07-05T00:29:24.165Z,100.00
2018-07-05T00:31:50.477Z,100.00
2018-07-05T00:34:16.794Z,100.00
2018-07-05T00:36:43.114Z,100.00
2018-07-05T00:39:09.436Z,100.00
2018-07-05T00:41:35.754Z,100.00
2018-07-05T00:44:02.078Z,100.00
2018-07-05T00:46:28.386Z,100.00
2018-07-05T00:48:54.809Z,100.00
2018-07-05T00:51:21.080Z,100.00
2018-07-05T00:53:47.400Z,100.00
2018-07-05T00:56:13.747Z,100.00
2018-07-05T00:58:40.068Z,100.00
2018-07-05T01:01:06.402Z,100.00
2018-07-05T01:03:32.711Z,100.00
2018-07-05T01:05:59.030Z,100.00
2018-07-05T01:08:25.347Z,100.00
2018-07-05T01:10:51.669Z,100.00
2018-07-05T01:13:17.984Z,100.00
2018-07-05T01:15:44.297Z,100.00
2018-07-05T01:18:10.622Z,100.00
2018-07-05T01:20:36.940Z,100.00
2018-07-05T01:23:03.263Z,100.00
2018-07-05T01:25:29.581Z,100.00
2018-07-05T01:27:55.915Z,100.00
2018-07-05T01:30:22.211Z,100.00
2018-07-05T01:32:48.534Z,100.00
2018-07-05T01:35:14.856Z,100.00
2018-07-05T01:37:41.173Z,100.00
2018-07-05T01:40:07.502Z,100.00
2018-07-05T01:42:33.833Z,100.00
2018-07-05T01:45:00.161Z,100.00
2018-07-05T01:47:26.531Z,100.00
2018-07-05T01:49:52.849Z,100.00
2018-07-05T01:52:19.161Z,100.00
2018-07-05T01:54:45.482Z,100.00
2018-07-05T01:57:11.799Z,100.00
2018-07-05T01:59:38.114Z,100.00
2018-07-05T02:02:04.435Z,100.00
2018-07-05T02:04:30.753Z,100.00
2018-07-05T02:06:57.068Z,100.00
2018-07-05T02:09:23.388Z,100.00
2018-07-05T02:11:49.704Z,100.00
2018-07-05T02:14:16.025Z,100.00
2018-07-05T02:16:42.340Z,100.00
2018-07-05T02:19:08.655Z,100.00
2018-07-05T02:21:34.980Z,100.00
2018-07-05T02:24:01.292Z,100.00
2018-07-05T02:26:27.618Z,100.00
2018-07-05T02:28:53.937Z,100.00
2018-07-05T02:31:20.247Z,100.00
2018-07-05T02:33:46.567Z,100.00
2018-07-05T02:36:12.884Z,100.00
2018-07-05T02:38:39.198Z,100.00
2018-07-05T02:41:05.519Z,100.00
2018-07-05T02:43:31.843Z,100.00
2018-07-05T02:45:58.183Z,100.00
2018-07-05T02:48:24.495Z,100.00
2018-07-05T02:50:50.816Z,100.00
2018-07-05T02:53:17.146Z,100.00
2018-07-05T02:55:43.472Z,100.00
2018-07-05T02:58:09.789Z,100.00
2018-07-05T03:00:36.103Z,100.00
2018-07-05T03:03:02.424Z,100.00
2018-07-05T03:05:28.740Z,100.00
2018-07-05T03:07:55.063Z,100.00
2018-07-05T03:10:21.375Z,100.00
2018-07-05T03:12:47.696Z,100.00
2018-07-05T03:15:14.006Z,100.00
2018-07-05T03:17:40.360Z,100.00
2018-07-05T03:20:06.680Z,100.00
2018-07-05T03:22:32.995Z,100.00
2018-07-05T03:24:59.314Z,100.00
2018-07-05T03:27:25.632Z,100.00
2018-07-05T03:29:51.954Z,100.00
2018-07-05T03:32:18.265Z,100.00
2018-07-05T03:34:44.583Z,100.00
2018-07-05T03:37:10.898Z,100.00
2018-07-05T03:39:37.209Z,100.00
2018-07-05T03:42:03.531Z,100.00
2018-07-05T03:44:29.862Z,100.00
2018-07-05T03:46:56.185Z,100.00
2018-07-05T03:49:22.509Z,100.00
2018-07-05T03:51:48.832Z,100.00
2018-07-05T03:54:15.150Z,100.00
2018-07-05T03:56:41.469Z,100.00
2018-07-05T03:59:07.801Z,100.00
2018-07-05T04:01:34.117Z,100.00
2018-07-05T04:04:00.433Z,100.00
2018-07-05T04:06:26.757Z,100.00
2018-07-05T04:08:53.075Z,100.00
2018-07-05T04:11:19.428Z,100.00
2018-07-05T04:13:45.747Z,100.00
2018-07-05T04:16:12.062Z,100.00
2018-07-05T04:18:38.378Z,100.00
2018-07-05T04:21:04.695Z,100.00
2018-07-05T04:23:31.030Z,100.00
2018-07-05T04:25:57.342Z,100.00
2018-07-05T04:28:23.657Z,100.00
2018-07-05T04:30:49.971Z,100.00
2018-07-05T04:33:16.286Z,100.00
2018-07-05T04:35:42.772Z,100.00
2018-07-05T04:38:09.119Z,100.00
2018-07-05T04:40:35.441Z,100.00
2018-07-05T04:43:01.759Z,100.00
2018-07-05T04:45:28.073Z,100.00
2018-07-05T04:47:54.394Z,100.00
2018-07-05T04:50:20.705Z,100.00
2018-07-05T04:52:47.031Z,100.00
2018-07-05T04:55:13.347Z,100.00
2018-07-05T04:57:39.663Z,100.00
2018-07-05T05:00:05.987Z,100.00
2018-07-05T05:02:32.343Z,100.00
2018-07-05T05:04:58.618Z,100.00
2018-07-05T05:07:24.931Z,100.00
2018-07-05T05:09:51.247Z,100.00
2018-07-05T05:12:17.571Z,100.00
2018-07-05T05:14:43.876Z,100.00
2018-07-05T05:17:10.196Z,100.00
2018-07-05T05:19:36.514Z,100.00
2018-07-05T05:22:02.829Z,100.00
2018-07-05T05:24:29.143Z,100.00
2018-07-05T05:26:55.475Z,100.00
2018-07-05T05:29:21.792Z,100.00
2018-07-05T05:31:48.105Z,100.00
2018-07-05T05:34:14.432Z,100.00
2018-07-05T05:36:40.779Z,100.00
2018-07-05T05:39:07.096Z,100.00
2018-07-05T05:41:33.405Z,100.00
2018-07-05T05:43:59.724Z,100.00
2018-07-05T05:46:26.039Z,100.00
2018-07-05T05:48:52.364Z,100.00
2018-07-05T05:51:18.692Z,100.00
2018-07-05T05:53:45.019Z,100.00
2018-07-05T05:56:11.328Z,100.00
2018-07-05T05:58:37.656Z,100.00
2018-07-05T06:01:04.003Z,100.00
2018-07-05T06:03:30.301Z,100.00
2018-07-05T06:05:56.615Z,100.00
2018-07-05T06:08:22.931Z,100.00
2018-07-05T06:10:49.245Z,100.00
2018-07-05T06:13:15.559Z,100.00
2018-07-05T06:15:41.879Z,99.29
2018-07-05T06:18:08.204Z,100.00
2018-07-05T06:20:34.528Z,100.00
2018-07-05T06:23:00.888Z,99.54
2018-07-05T06:25:27.238Z,100.00
2018-07-05T06:27:53.533Z,99.78
2018-07-05T06:30:19.851Z,99.86
2018-07-05T06:32:46.161Z,97.83
2018-07-05T06:35:12.524Z,98.71
2018-07-05T06:37:38.833Z,98.14
2018-07-05T06:40:05.147Z,97.07
2018-07-05T06:42:31.461Z,93.42
2018-07-05T06:44:57.773Z,90.57
2018-07-05T06:47:24.146Z,91.63
2018-07-05T06:49:50.410Z,89.03
2018-07-05T06:52:16.730Z,91.20
2018-07-05T06:54:43.044Z,90.74
2018-07-05T06:57:09.353Z,83.28
2018-07-05T06:59:35.672Z,84.89
2018-07-05T07:02:02.058Z,84.28
2018-07-05T07:04:28.369Z,82.41
2018-07-05T07:06:54.688Z,80.77
2018-07-05T07:09:21.019Z,82.33
2018-07-05T07:11:47.332Z,76.78
2018-07-05T07:14:13.656Z,81.51
2018-07-05T07:16:39.972Z,80.28
2018-07-05T07:19:06.282Z,80.86
2018-07-05T07:21:32.617Z,75.59
2018-07-05T07:23:58.936Z,70.71
2018-07-05T07:26:25.246Z,70.56
2018-07-05T07:28:51.561Z,64.87
2018-07-05T07:31:17.937Z,57.83
2018-07-05T07:33:44.226Z,62.84
2018-07-05T07:36:10.548Z,61.35
2018-07-05T07:38:36.865Z,63.49
2018-07-05T07:41:03.187Z,61.03
2018-07-05T07:43:29.501Z,55.23
2018-07-05T07:45:55.808Z,54.13
2018-07-05T07:48:22.124Z,54.65
2018-07-05T07:50:48.470Z,54.92
2018-07-05T07:53:14.787Z,54.82
2018-07-05T07:55:41.180Z,54.63
2018-07-05T07:58:07.522Z,50.82
2018-07-05T08:00:33.809Z,52.80
2018-07-05T08:03:00.121Z,50.71
2018-07-05T08:05:26.433Z,52.31
2018-07-05T08:07:52.801Z,51.67
2018-07-05T08:10:19.082Z,51.71
2018-07-05T08:12:45.397Z,50.10
2018-07-05T08:15:11.750Z,48.77
2018-07-05T08:17:38.064Z,49.75
2018-07-05T08:20:04.386Z,49.10
2018-07-05T08:22:30.701Z,47.91
2018-07-05T08:24:57.007Z,47.41
2018-07-05T08:27:23.356Z,48.72
2018-07-05T08:29:49.663Z,47.42
2018-07-05T08:32:15.979Z,47.72
2018-07-05T08:34:42.291Z,46.52
2018-07-05T08:37:08.612Z,46.48
2018-07-05T08:39:34.959Z,46.53
2018-07-05T08:42:01.271Z,45.92
2018-07-05T08:44:27.583Z,44.31
2018-07-05T08:46:53.890Z,44.47
2018-07-05T08:49:20.213Z,44.54
2018-07-05T08:51:46.556Z,44.90
2018-07-05T08:54:12.863Z,44.01
2018-07-05T08:56:39.179Z,44.12
2018-07-05T08:59:05.523Z,45.83
2018-07-05T09:01:31.851Z,45.07
2018-07-05T09:03:58.198Z,43.70
2018-07-05T09:06:24.514Z,44.70
2018-07-05T09:08:50.824Z,44.13
2018-07-05T09:11:17.158Z,44.72
2018-07-05T09:13:43.480Z,43.97
2018-07-05T09:16:09.820Z,42.67
2018-07-05T09:18:36.135Z,43.30
2018-07-05T09:21:02.445Z,42.15
2018-07-05T09:23:28.846Z,41.33
2018-07-05T09:25:55.083Z,41.66
2018-07-05T09:28:21.437Z,41.23
2018-07-05T09:30:47.744Z,40.40
2018-07-05T09:33:14.057Z,41.21
2018-07-05T09:35:40.375Z,40.55
2018-07-05T09:38:06.703Z,39.99
2018-07-05T09:40:33.044Z,40.04
2018-07-05T09:42:59.352Z,39.23
2018-07-05T09:45:25.659Z,40.10
2018-07-05T09:47:51.978Z,39.47
2018-07-05T09:50:18.392Z,38.72
2018-07-05T09:52:44.788Z,39.19
2018-07-05T09:55:11.058Z,37.71
2018-07-05T09:57:37.371Z,38.60
2018-07-05T10:00:03.685Z,38.60
2018-07-05T10:02:30.005Z,39.02
2018-07-05T10:04:56.363Z,39.00
2018-07-05T10:07:22.680Z,38.83
2018-07-05T10:09:48.991Z,38.59
2018-07-05T10:12:15.317Z,38.56
2018-07-05T10:14:41.622Z,37.29
2018-07-05T10:17:07.973Z,38.06
2018-07-05T10:19:34.278Z,38.72
2018-07-05T10:22:00.596Z,38.19
2018-07-05T10:24:26.919Z,38.33
2018-07-05T10:26:53.317Z,38.33
2018-07-05T10:29:19.598Z,37.38
2018-07-05T10:31:45.916Z,36.94
2018-07-05T10:34:12.229Z,37.82
2018-07-05T10:36:38.544Z,38.34
2018-07-05T10:39:04.857Z,38.85
2018-07-05T10:41:31.226Z,39.04
2018-07-05T10:43:57.541Z,39.32
2018-07-05T10:46:23.860Z,40.34
2018-07-05T10:48:50.185Z,40.42
2018-07-05T10:51:16.495Z,40.09
2018-07-05T10:53:42.805Z,40.17
2018-07-05T10:56:09.118Z,42.28
2018-07-05T10:58:35.433Z,40.73
2018-07-05T11:01:01.791Z,40.87
2018-07-05T11:03:28.060Z,40.02
2018-07-05T11:05:54.373Z,40.80
2018-07-05T11:08:20.732Z,42.12
2018-07-05T11:10:47.044Z,41.59
2018-07-05T11:13:13.362Z,40.40
2018-07-05T11:15:39.678Z,40.46
2018-07-05T11:18:05.995Z,39.94
2018-07-05T11:20:32.316Z,38.77
2018-07-05T11:22:58.630Z,39.41
2018-07-05T11:25:24.947Z,39.49
2018-07-05T11:27:51.289Z,40.94
2018-07-05T11:30:17.630Z,39.96
2018-07-05T11:32:43.928Z,40.90
2018-07-05T11:35:10.285Z,41.60
2018-07-05T11:37:36.591Z,41.81
2018-07-05T11:40:02.907Z,41.22
2018-07-05T11:42:29.272Z,39.52
2018-07-05T11:44:55.541Z,39.66
2018-07-05T11:47:21.862Z,39.75
2018-07-05T11:49:48.367Z,41.14
2018-07-05T11:52:14.759Z,40.88
2018-07-05T11:54:41.006Z,39.84
2018-07-05T11:57:07.317Z,40.12
2018-07-05T11:59:36.095Z,40.65
2018-07-05T12:02:02.478Z,41.26
2018-07-05T12:04:28.733Z,40.44
2018-07-05T12:06:55.054Z,39.47
2018-07-05T12:09:21.376Z,38.63
2018-07-05T12:11:47.693Z,39.94
2018-07-05T12:14:14.008Z,40.73
2018-07-05T12:16:40.332Z,41.18
2018-07-05T12:19:06.651Z,40.12
2018-07-05T12:21:32.991Z,40.51
2018-07-05T12:23:59.325Z,40.25
2018-07-05T12:26:25.619Z,40.61
2018-07-05T12:28:51.939Z,39.70
2018-07-05T12:31:18.261Z,41.49
2018-07-05T12:33:44.610Z,42.00
2018-07-05T12:36:10.935Z,43.23
2018-07-05T12:38:37.287Z,42.39
2018-07-05T12:41:03.597Z,42.40
2018-07-05T12:43:29.913Z,42.77
2018-07-05T12:45:56.227Z,42.32
2018-07-05T12:48:22.543Z,41.18
2018-07-05T12:50:48.864Z,41.72
2018-07-05T12:53:15.176Z,40.41
2018-07-05T12:55:41.535Z,40.69
2018-07-05T12:58:07.856Z,40.80
2018-07-05T13:00:34.167Z,41.27
2018-07-05T13:03:00.486Z,40.11
2018-07-05T13:05:26.792Z,38.86
2018-07-05T13:07:53.134Z,38.40
2018-07-05T13:10:19.451Z,38.62
2018-07-05T13:12:45.839Z,39.16
2018-07-05T13:15:12.106Z,39.61
2018-07-05T13:17:38.421Z,40.67
2018-07-05T13:20:04.731Z,40.92
2018-07-05T13:22:31.049Z,39.06
2018-07-05T13:24:57.366Z,39.13
2018-07-05T13:27:23.698Z,38.34
2018-07-05T13:29:50.019Z,36.93
2018-07-05T13:32:16.367Z,36.62
2018-07-05T13:34:42.676Z,34.73
2018-07-05T13:37:08.999Z,36.61
2018-07-05T13:39:35.356Z,34.88
2018-07-05T13:42:01.636Z,37.90
2018-07-05T13:44:27.953Z,39.65
2018-07-05T13:46:54.271Z,40.31
2018-07-05T13:49:20.609Z,40.49
2018-07-05T13:51:46.900Z,40.65
2018-07-05T13:54:13.258Z,40.91
2018-07-05T13:56:39.564Z,41.00
2018-07-05T13:59:05.882Z,39.88
2018-07-05T14:01:32.192Z,41.10
2018-07-05T14:03:58.507Z,41.40
2018-07-05T14:06:24.837Z,41.02
2018-07-05T14:08:51.149Z,41.14
2018-07-05T14:11:17.457Z,41.36
2018-07-05T14:13:43.767Z,41.29
2018-07-05T14:16:10.115Z,40.34
2018-07-05T14:18:36.428Z,40.27
2018-07-05T14:21:02.739Z,42.29
2018-07-05T14:23:29.084Z,43.00
2018-07-05T14:25:55.396Z,41.83
2018-07-05T14:28:21.719Z,42.77
2018-07-05T14:30:48.061Z,41.92
2018-07-05T14:33:14.373Z,42.62
2018-07-05T14:35:40.690Z,42.70
2018-07-05T14:38:06.999Z,41.62
2018-07-05T14:40:33.308Z,41.98
2018-07-05T14:42:59.624Z,41.34
2018-07-05T14:45:25.943Z,42.41
2018-07-05T14:47:55.690Z,41.82
2018-07-05T14:50:21.999Z,42.32
2018-07-05T14:52:48.427Z,42.14
2018-07-05T14:55:14.735Z,42.13
2018-07-05T14:57:41.054Z,42.36
2018-07-05T15:00:07.416Z,43.09
2018-07-05T15:02:33.723Z,42.19
2018-07-05T15:05:00.046Z,42.51
2018-07-05T15:07:26.362Z,42.48
2018-07-05T15:09:54.843Z,42.63
2018-07-05T15:12:26.066Z,43.09
2018-07-05T15:14:52.362Z,42.22
2018-07-05T15:17:18.676Z,43.45
2018-07-05T15:19:44.988Z,45.41
2018-07-05T15:22:11.361Z,45.97
2018-07-05T15:24:37.680Z,46.67
2018-07-05T15:27:04.007Z,46.50
2018-07-05T15:29:30.373Z,42.81
2018-07-05T15:31:56.704Z,44.36
2018-07-05T15:34:23.033Z,43.30
2018-07-05T15:36:49.356Z,42.73
2018-07-05T15:39:15.719Z,44.30
2018-07-05T15:41:42.029Z,45.83
2018-07-05T15:44:08.341Z,46.50
2018-07-05T15:46:34.859Z,46.96
2018-07-05T15:49:01.156Z,47.26
2018-07-05T15:51:27.471Z,47.16
2018-07-05T15:53:53.782Z,47.47
2018-07-05T15:56:20.102Z,47.33
2018-07-05T15:58:46.425Z,46.87
2018-07-05T16:01:12.914Z,47.02
2018-07-05T16:03:39.230Z,47.17
2018-07-05T16:06:05.528Z,47.63
2018-07-05T16:08:32.239Z,48.41
2018-07-05T16:10:58.543Z,48.59
2018-07-05T16:13:24.857Z,48.30
2018-07-05T16:15:51.169Z,48.38
2018-07-05T16:18:17.488Z,48.43
2018-07-05T16:20:43.799Z,48.39
2018-07-05T16:23:10.116Z,48.97
2018-07-05T16:25:36.443Z,49.46
2018-07-05T16:28:02.809Z,49.26
2018-07-05T16:30:29.119Z,49.31
2018-07-05T16:32:55.431Z,49.80
2018-07-05T16:35:21.781Z,49.59
2018-07-05T16:37:48.068Z,49.65
2018-07-05T16:40:14.395Z,50.06
2018-07-05T16:42:40.700Z,50.40
2018-07-05T16:45:07.013Z,50.38
2018-07-05T16:47:33.319Z,50.43
2018-07-05T16:49:59.654Z,50.28
2018-07-05T16:52:25.967Z,49.95
2018-07-05T16:54:52.367Z,50.08
2018-07-05T16:57:18.645Z,50.57
2018-07-05T16:59:44.964Z,50.64
2018-07-05T17:02:11.278Z,50.99
2018-07-05T17:04:37.590Z,51.30
2018-07-05T17:07:03.911Z,51.22
2018-07-05T17:09:30.260Z,51.56
2018-07-05T17:11:56.575Z,51.97
2018-07-05T17:14:22.894Z,52.14
2018-07-05T17:16:49.218Z,52.78
2018-07-05T17:19:15.528Z,53.73
2018-07-05T17:21:43.757Z,54.25
2018-07-05T17:24:08.340Z,54.55
2018-07-05T17:26:34.647Z,54.91
2018-07-05T17:29:00.972Z,55.49
2018-07-05T17:31:39.654Z,55.82
2018-07-05T17:33:58.979Z,56.36
2018-07-05T17:36:29.868Z,56.47
2018-07-05T17:38:56.220Z,56.91
2018-07-05T17:41:22.552Z,57.18
2018-07-05T17:43:49.424Z,57.59
2018-07-05T17:46:15.741Z,58.01
2018-07-05T17:48:42.050Z,58.35
2018-07-05T17:51:08.376Z,58.51
2018-07-05T17:53:34.687Z,58.97
2018-07-05T17:56:01.001Z,58.99
2018-07-05T17:58:27.333Z,59.67
2018-07-05T18:00:53.717Z,59.85
2018-07-05T18:03:20.050Z,60.06
2018-07-05T18:05:46.376Z,60.42
2018-07-05T18:08:12.689Z,60.53
2018-07-05T18:10:39.010Z,61.32
2018-07-05T18:13:05.355Z,61.25
2018-07-05T18:15:31.635Z,61.53
2018-07-05T18:17:57.948Z,62.08
2018-07-05T18:20:24.288Z,62.16
2018-07-05T18:22:50.572Z,62.60
2018-07-05T18:25:16.961Z,62.36
2018-07-05T18:27:43.411Z,63.14
2018-07-05T18:30:09.648Z,63.52
2018-07-05T18:32:35.963Z,63.46
2018-07-05T18:35:02.274Z,63.42
2018-07-05T18:37:28.592Z,63.20
2018-07-05T18:39:54.902Z,63.73
2018-07-05T18:42:21.209Z,63.58
2018-07-05T18:44:47.537Z,63.16
2018-07-05T18:47:13.896Z,63.75
2018-07-05T18:49:40.223Z,64.42
2018-07-05T18:52:06.534Z,64.07
2018-07-05T18:54:32.851Z,64.43
2018-07-05T18:56:59.160Z,65.28
2018-07-05T18:59:25.465Z,65.71
2018-07-05T19:01:51.784Z,65.89
2018-07-05T19:04:18.138Z,65.63
2018-07-05T19:06:44.421Z,66.45
2018-07-05T19:09:10.735Z,67.03
2018-07-05T19:11:37.048Z,67.13
2018-07-05T19:14:03.367Z,67.15
2018-07-05T19:16:29.865Z,67.92
2018-07-05T19:18:56.041Z,67.61
2018-07-05T19:21:22.349Z,68.39
2018-07-05T19:23:48.660Z,68.56
2018-07-05T19:26:14.998Z,68.42
2018-07-05T19:28:41.318Z,67.93
2018-07-05T19:31:07.648Z,68.05
2018-07-05T19:33:33.987Z,68.17
2018-07-05T19:36:00.323Z,68.57
2018-07-05T19:38:26.635Z,68.63
2018-07-05T19:40:52.944Z,68.35
2018-07-05T19:43:19.261Z,68.07
2018-07-05T19:45:45.574Z,70.31
2018-07-05T19:48:11.907Z,69.65
2018-07-05T19:50:38.223Z,69.32
2018-07-05T19:53:04.552Z,69.31
2018-07-05T19:55:30.871Z,69.54
2018-07-05T19:57:57.190Z,70.32
2018-07-05T20:00:23.533Z,69.36
2018-07-05T20:02:49.819Z,68.64
2018-07-05T20:05:16.137Z,68.20
2018-07-05T20:07:42.484Z,68.15
2018-07-05T20:10:08.840Z,68.95
2018-07-05T20:12:35.178Z,68.42
2018-07-05T20:15:01.506Z,68.81
2018-07-05T20:17:27.819Z,69.52
2018-07-05T20:19:54.141Z,69.60
2018-07-05T20:22:20.456Z,70.19
2018-07-05T20:24:46.777Z,70.42
2018-07-05T20:27:13.091Z,70.79
2018-07-05T20:29:39.399Z,71.42
2018-07-05T20:32:05.715Z,71.69
2018-07-05T20:34:32.033Z,71.40
2018-07-05T20:36:58.379Z,72.03
2018-07-05T20:39:24.688Z,71.80
2018-07-05T20:41:51.051Z,71.27
2018-07-05T20:44:17.313Z,72.10
2018-07-05T20:46:43.623Z,72.44
2018-07-05T20:49:09.940Z,73.08
2018-07-05T20:51:36.256Z,71.96
2018-07-05T20:54:02.567Z,71.81
2018-07-05T20:56:28.887Z,72.07
2018-07-05T20:58:55.218Z,72.52
2018-07-05T21:01:21.510Z,72.41
2018-07-05T21:03:47.822Z,73.22
2018-07-05T21:06:14.174Z,72.28
2018-07-05T21:08:40.519Z,73.25
2018-07-05T21:11:06.834Z,73.12
2018-07-05T21:13:33.180Z,73.28
2018-07-05T21:15:59.459Z,73.20
2018-07-05T21:18:25.782Z,72.66
2018-07-05T21:20:52.097Z,73.61
2018-07-05T21:23:18.418Z,73.93
2018-07-05T21:25:44.795Z,73.85
2018-07-05T21:28:11.151Z,74.32
2018-07-05T21:30:37.443Z,74.30
2018-07-05T21:33:03.751Z,74.99
2018-07-05T21:35:30.065Z,75.04
2018-07-05T21:37:56.420Z,75.66
2018-07-05T21:40:22.779Z,75.40
2018-07-05T21:42:49.053Z,75.74
2018-07-05T21:45:15.392Z,75.39
2018-07-05T21:47:41.752Z,75.55
2018-07-05T21:50:08.060Z,76.32
2018-07-05T21:52:34.394Z,77.01
2018-07-05T21:55:00.691Z,77.39
2018-07-05T21:57:27.009Z,77.70
2018-07-05T21:59:53.365Z,78.34
2018-07-05T22:02:19.680Z,78.11
2018-07-05T22:04:46.010Z,78.35
2018-07-05T22:07:12.373Z,78.78
2018-07-05T22:09:38.686Z,79.59
2018-07-05T22:12:05.007Z,79.39
2018-07-05T22:14:31.331Z,78.93
2018-07-05T22:16:57.712Z,78.96
2018-07-05T22:19:25.063Z,78.98
2018-07-05T22:21:50.330Z,79.23
2018-07-05T22:24:16.652Z,79.16
2018-07-05T22:26:42.962Z,79.91
2018-07-05T22:29:09.293Z,80.22
2018-07-05T22:31:35.643Z,80.28
2018-07-05T22:34:01.953Z,80.41
2018-07-05T22:36:28.320Z,80.38
2018-07-05T22:38:54.593Z,80.65
2018-07-05T22:41:20.939Z,80.59
2018-07-05T22:43:47.248Z,80.61
2018-07-05T22:46:13.566Z,80.42
2018-07-05T22:48:39.879Z,80.56
2018-07-05T22:51:06.189Z,80.83
2018-07-05T22:53:32.508Z,81.50
2018-07-05T22:55:58.821Z,81.21
2018-07-05T22:58:25.170Z,81.56
2018-07-05T23:00:51.478Z,81.31
2018-07-05T23:03:17.794Z,80.91
2018-07-05T23:05:44.106Z,80.82
2018-07-05T23:08:10.421Z,80.71
2018-07-05T23:10:36.735Z,81.58
2018-07-05T23:13:03.048Z,81.63
2018-07-05T23:15:29.363Z,80.50
2018-07-05T23:17:55.671Z,80.83
2018-07-05T23:20:21.989Z,81.09
2018-07-05T23:22:48.301Z,81.49
2018-07-05T23:25:14.615Z,82.17
2018-07-05T23:27:40.926Z,81.93
2018-07-05T23:30:07.276Z,82.11
2018-07-05T23:32:33.586Z,82.63
2018-07-05T23:34:59.931Z,82.24
2018-07-05T23:37:26.240Z,82.33
2018-07-05T23:39:52.593Z,82.58
2018-07-05T23:42:18.937Z,82.85
2018-07-05T23:44:45.294Z,82.64
2018-07-05T23:47:11.560Z,82.73
2018-07-05T23:49:37.872Z,83.39
2018-07-05T23:52:04.184Z,83.23
2018-07-05T23:54:30.526Z,83.14
2018-07-05T23:56:56.846Z,83.60
2018-07-05T23:59:23.200Z,84.20
